createdAt,value
2022-11-30T00:02:49.785Z,9.88
2022-11-30T00:05:54.591Z,10.65
2022-11-30T00:08:59.027Z,11.55
2022-11-30T00:12:04.112Z,10.80
2022-11-30T00:15:14.357Z,10.27
2022-11-30T00:18:18.985Z,9.98
2022-11-30T00:21:23.611Z,11.15
2022-11-30T00:24:28.285Z,10.45
2022-11-30T00:27:33.840Z,10.73
2022-11-30T00:30:38.261Z,10.63
2022-11-30T00:33:42.920Z,10.32
2022-11-30T00:36:47.598Z,9.88
2022-11-30T00:39:52.639Z,10.02
2022-11-30T00:42:57.136Z,9.27
2022-11-30T00:46:02.084Z,9.52
2022-11-30T00:49:06.758Z,10.20
2022-11-30T00:52:11.918Z,8.55
2022-11-30T00:55:16.963Z,8.93
2022-11-30T00:58:21.746Z,8.65
2022-11-30T01:01:26.492Z,9.35
2022-11-30T01:04:31.150Z,9.70
2022-11-30T01:07:35.408Z,11.27
2022-11-30T01:10:42.227Z,10.25
2022-11-30T01:13:46.976Z,10.82
2022-11-30T01:16:56.082Z,10.73
2022-11-30T01:20:01.333Z,8.88
2022-11-30T01:23:06.102Z,8.98
2022-11-30T01:26:11.526Z,9.45
2022-11-30T01:29:16.568Z,8.50
2022-11-30T01:32:21.242Z,8.57
2022-11-30T01:35:25.796Z,8.70
2022-11-30T01:38:39.137Z,11.07
2022-11-30T01:41:44.241Z,10.45
2022-11-30T01:44:55.244Z,10.52
2022-11-30T01:48:00.429Z,8.75
2022-11-30T01:51:10.849Z,10.05
2022-11-30T01:54:24.600Z,9.80
2022-11-30T01:57:40.119Z,9.02
2022-11-30T02:00:47.627Z,8.98
2022-11-30T02:04:00.252Z,8.52
2022-11-30T02:07:07.845Z,9.68
2022-11-30T02:10:19.463Z,8.38
2022-11-30T02:13:40.787Z,8.93
2022-11-30T02:17:04.557Z,8.32
2022-11-30T02:20:40.271Z,7.43
2022-11-30T02:24:08.019Z,10.43
2022-11-30T02:27:27.901Z,7.93
2022-11-30T02:30:37.357Z,7.80
2022-11-30T02:33:43.051Z,9.27
2022-11-30T02:36:48.708Z,9.98
2022-11-30T02:39:53.559Z,9.45
2022-11-30T02:43:02.407Z,9.02
2022-11-30T02:46:23.511Z,9.48
2022-11-30T02:50:00.076Z,8.77
2022-11-30T02:53:04.756Z,8.95
2022-11-30T02:56:08.990Z,8.88
2022-11-30T02:59:13.335Z,8.63
2022-11-30T03:02:17.721Z,8.10
2022-11-30T03:05:22.490Z,10.00
2022-11-30T03:08:27.290Z,8.95
2022-11-30T03:11:31.970Z,9.50
2022-11-30T03:14:36.432Z,8.60
2022-11-30T03:17:40.968Z,9.25
2022-11-30T03:20:46.024Z,10.13
2022-11-30T03:23:50.824Z,11.45
2022-11-30T03:26:55.187Z,8.73
2022-11-30T03:29:59.978Z,9.30
2022-11-30T03:33:04.612Z,8.60
2022-11-30T03:36:11.985Z,9.52
2022-11-30T03:39:16.219Z,9.13
2022-11-30T03:42:20.697Z,9.70
2022-11-30T03:45:25.433Z,9.25
2022-11-30T03:48:30.631Z,10.13
2022-11-30T03:51:35.514Z,7.70
2022-11-30T03:54:40.065Z,7.68
2022-11-30T03:57:44.688Z,9.25
2022-11-30T04:00:49.770Z,8.25
2022-11-30T04:03:54.379Z,9.32
2022-11-30T04:06:58.898Z,7.43
2022-11-30T04:10:08.232Z,10.00
2022-11-30T04:13:14.044Z,8.63
2022-11-30T04:16:18.381Z,8.30
2022-11-30T04:19:22.864Z,8.52
2022-11-30T04:22:27.332Z,8.43
2022-11-30T04:25:31.842Z,8.05
2022-11-30T04:28:36.399Z,7.28
2022-11-30T04:31:41.012Z,7.13
2022-11-30T04:34:45.937Z,6.90
2022-11-30T04:37:50.511Z,8.90
2022-11-30T04:40:55.247Z,8.65
2022-11-30T04:43:59.687Z,8.52
2022-11-30T04:47:03.963Z,8.20
2022-11-30T04:50:10.088Z,7.72
2022-11-30T04:53:14.901Z,7.68
2022-11-30T04:56:19.695Z,7.25
2022-11-30T04:59:24.197Z,6.57
2022-11-30T05:02:30.581Z,6.57
2022-11-30T05:05:35.280Z,8.23
2022-11-30T05:08:39.756Z,8.35
2022-11-30T05:11:44.356Z,9.18
2022-11-30T05:14:49.305Z,7.82
2022-11-30T05:17:53.979Z,7.57
2022-11-30T05:20:58.331Z,7.43
2022-11-30T05:24:03.051Z,8.00
2022-11-30T05:27:13.459Z,6.53
2022-11-30T05:30:19.923Z,8.15
2022-11-30T05:33:24.458Z,6.53
2022-11-30T05:36:28.814Z,8.27
2022-11-30T05:39:33.446Z,7.18
2022-11-30T05:42:38.047Z,5.85
2022-11-30T05:45:42.788Z,6.72
2022-11-30T05:48:47.028Z,7.68
2022-11-30T05:51:51.546Z,6.18
2022-11-30T05:54:56.471Z,6.07
2022-11-30T05:58:01.634Z,6.18
2022-11-30T06:01:07.085Z,7.75
2022-11-30T06:04:11.586Z,5.50
2022-11-30T06:07:15.862Z,5.10
2022-11-30T06:10:20.855Z,5.68
2022-11-30T06:13:28.874Z,5.25
2022-11-30T06:16:33.503Z,6.22
2022-11-30T06:19:37.989Z,6.22
2022-11-30T06:22:46.195Z,6.05
2022-11-30T06:25:50.730Z,5.82
2022-11-30T06:28:55.114Z,6.95
2022-11-30T06:31:59.862Z,5.38
2022-11-30T06:35:04.677Z,4.90
2022-11-30T06:38:09.339Z,6.32
2022-11-30T06:41:14.188Z,6.90
2022-11-30T06:44:18.836Z,6.93
2022-11-30T06:47:24.149Z,5.60
2022-11-30T06:50:28.874Z,6.43
2022-11-30T06:53:33.823Z,5.30
2022-11-30T06:56:38.605Z,4.93
2022-11-30T06:59:43.899Z,6.53
2022-11-30T07:02:48.259Z,5.75
2022-11-30T07:05:52.849Z,7.72
2022-11-30T07:08:57.727Z,6.38
2022-11-30T07:12:02.911Z,6.53
2022-11-30T07:15:08.706Z,5.90
2022-11-30T07:18:13.594Z,4.80
2022-11-30T07:21:18.442Z,5.25
2022-11-30T07:24:42.220Z,3.95
2022-11-30T07:27:46.851Z,4.30
2022-11-30T07:30:51.540Z,4.50
2022-11-30T07:34:02.653Z,4.10
2022-11-30T07:37:06.958Z,4.80
2022-11-30T07:40:12.122Z,4.35
2022-11-30T07:43:17.755Z,4.72
2022-11-30T07:46:22.451Z,4.70
2022-11-30T07:49:27.668Z,5.43
2022-11-30T07:52:32.433Z,5.25
2022-11-30T07:55:37.137Z,3.83
2022-11-30T07:58:43.128Z,3.67
2022-11-30T08:01:47.859Z,3.30
2022-11-30T08:04:52.645Z,3.45
2022-11-30T08:08:01.384Z,4.25
2022-11-30T08:11:09.311Z,7.80
2022-11-30T08:14:14.137Z,7.68
2022-11-30T08:17:20.290Z,5.95
2022-11-30T08:20:24.748Z,5.68
2022-11-30T08:23:31.172Z,5.75
2022-11-30T08:26:37.063Z,6.50
2022-11-30T08:29:42.052Z,9.02
2022-11-30T08:32:47.718Z,9.27
2022-11-30T08:35:55.395Z,8.40
2022-11-30T08:39:02.949Z,7.63
2022-11-30T08:42:07.475Z,8.88
2022-11-30T08:45:12.122Z,7.80
2022-11-30T08:48:16.866Z,9.35
2022-11-30T08:51:21.904Z,9.75
2022-11-30T08:54:28.076Z,8.23
2022-11-30T08:57:33.646Z,9.73
2022-11-30T09:00:38.167Z,11.30
2022-11-30T09:03:44.867Z,9.02
2022-11-30T09:06:50.065Z,15.00
2022-11-30T09:09:54.517Z,12.65
2022-11-30T09:12:59.030Z,12.88
2022-11-30T09:16:04.279Z,13.43
2022-11-30T09:19:10.464Z,10.50
2022-11-30T09:22:15.246Z,13.05
2022-11-30T09:25:20.152Z,10.60
2022-11-30T09:28:25.827Z,13.00
2022-11-30T09:31:30.522Z,12.85
2022-11-30T09:34:35.124Z,8.88
2022-11-30T09:37:40.285Z,9.77
2022-11-30T09:40:44.687Z,11.57
2022-11-30T09:44:24.840Z,10.57
2022-11-30T09:47:55.236Z,13.43
2022-11-30T09:51:11.988Z,10.10
2022-11-30T09:54:35.444Z,14.80
2022-11-30T09:57:52.580Z,13.52
2022-11-30T10:00:57.345Z,13.05
2022-11-30T10:04:02.333Z,15.93
2022-11-30T10:07:48.544Z,12.10
2022-11-30T10:11:31.082Z,13.23
2022-11-30T10:14:59.958Z,10.32
2022-11-30T10:18:14.152Z,9.57
2022-11-30T10:22:10.087Z,14.77
2022-11-30T10:25:36.372Z,10.25
2022-11-30T10:29:07.358Z,10.57
2022-11-30T10:32:27.550Z,12.50
2022-11-30T10:35:41.394Z,11.45
2022-11-30T10:38:56.113Z,10.27
2022-11-30T10:42:11.875Z,10.45
2022-11-30T10:45:24.367Z,12.25
2022-11-30T10:48:40.209Z,11.23
2022-11-30T10:51:51.780Z,14.00
2022-11-30T10:55:03.689Z,11.48
2022-11-30T10:58:52.400Z,10.00
2022-11-30T11:01:57.102Z,8.60
2022-11-30T11:05:31.019Z,10.93
2022-11-30T11:08:35.686Z,8.63
2022-11-30T11:11:40.641Z,9.93
2022-11-30T11:14:45.755Z,10.32
2022-11-30T11:17:51.695Z,10.23
2022-11-30T11:21:07.824Z,10.40
2022-11-30T11:24:12.059Z,10.40
2022-11-30T11:27:32.135Z,10.65
2022-11-30T11:30:37.622Z,9.63
2022-11-30T11:33:53.131Z,9.80
2022-11-30T11:37:32.153Z,11.90
2022-11-30T11:40:36.574Z,14.45
2022-11-30T11:44:09.743Z,12.05
2022-11-30T11:47:57.297Z,10.27
2022-11-30T11:51:07.875Z,10.55
2022-11-30T11:54:30.880Z,11.88
2022-11-30T11:57:48.282Z,10.73
2022-11-30T12:01:16.814Z,14.90
2022-11-30T12:04:45.739Z,15.02
2022-11-30T12:08:21.373Z,12.50
2022-11-30T12:11:32.060Z,14.93
2022-11-30T12:14:38.226Z,12.35
2022-11-30T12:17:58.587Z,17.77
2022-11-30T12:21:21.541Z,14.52
2022-11-30T12:24:48.063Z,11.02
2022-11-30T12:29:03.226Z,12.13
2022-11-30T12:32:33.812Z,13.93
2022-11-30T12:36:14.422Z,13.77
2022-11-30T12:39:31.121Z,14.55
2022-11-30T12:43:07.384Z,14.07
2022-11-30T12:46:38.028Z,12.25
2022-11-30T12:50:31.657Z,10.48
2022-11-30T12:54:07.270Z,15.55
2022-11-30T12:57:35.145Z,13.02
2022-11-30T13:01:12.210Z,10.93
2022-11-30T13:04:28.520Z,11.20
2022-11-30T13:07:45.571Z,10.40
2022-11-30T13:10:58.601Z,8.77
2022-11-30T13:14:12.993Z,8.98
2022-11-30T13:17:19.824Z,9.30
2022-11-30T13:21:06.165Z,11.82
2022-11-30T13:24:29.334Z,13.57
2022-11-30T13:27:44.290Z,13.05
2022-11-30T13:31:11.016Z,10.88
2022-11-30T13:34:30.469Z,10.25
2022-11-30T13:37:35.272Z,9.23
2022-11-30T13:40:39.723Z,9.00
2022-11-30T13:43:48.380Z,10.27
2022-11-30T13:46:53.789Z,8.52
2022-11-30T13:50:09.355Z,8.38
2022-11-30T13:53:27.273Z,8.35
2022-11-30T13:56:34.406Z,8.52
2022-11-30T13:59:48.070Z,7.50
2022-11-30T14:02:54.558Z,9.70
2022-11-30T14:06:04.998Z,9.20
2022-11-30T14:09:41.929Z,9.85
2022-11-30T14:12:56.618Z,8.70
2022-11-30T14:16:02.330Z,7.80
2022-11-30T14:19:06.923Z,11.93
2022-11-30T14:22:13.806Z,10.90
2022-11-30T14:25:21.043Z,11.60
2022-11-30T14:28:41.630Z,11.45
2022-11-30T14:32:02.305Z,10.32
2022-11-30T14:35:17.010Z,11.93
2022-11-30T14:38:31.019Z,10.75
2022-11-30T14:41:35.717Z,10.00
2022-11-30T14:44:41.173Z,9.80
2022-11-30T14:47:48.240Z,9.73
2022-11-30T14:50:59.914Z,12.57
2022-11-30T14:54:18.324Z,12.77
2022-11-30T14:57:35.105Z,12.63
2022-11-30T15:00:43.508Z,11.20
2022-11-30T15:03:49.797Z,13.70
2022-11-30T15:06:56.654Z,12.98
2022-11-30T15:10:08.002Z,11.07
2022-11-30T15:13:16.912Z,11.38
2022-11-30T15:16:27.467Z,9.55
2022-11-30T15:19:34.524Z,11.35
2022-11-30T15:22:38.887Z,10.35
2022-11-30T15:25:52.488Z,10.18
2022-11-30T15:29:05.391Z,8.10
2022-11-30T15:32:19.537Z,8.60
2022-11-30T15:35:38.800Z,8.80
2022-11-30T15:38:52.067Z,8.90
2022-11-30T15:42:02.795Z,10.07
2022-11-30T15:45:26.747Z,8.63
2022-11-30T15:48:39.020Z,10.20
2022-11-30T15:51:48.663Z,11.18
2022-11-30T15:54:56.515Z,10.02
2022-11-30T15:58:02.921Z,10.60
2022-11-30T16:01:10.583Z,8.27
2022-11-30T16:04:15.612Z,8.52
2022-11-30T16:07:20.107Z,8.18
2022-11-30T16:10:37.928Z,9.65
2022-11-30T16:13:43.692Z,8.43
2022-11-30T16:16:48.457Z,8.77
2022-11-30T16:19:53.410Z,7.50
2022-11-30T16:23:04.045Z,8.00
2022-11-30T16:29:42.375Z,8.43
2022-11-30T16:32:47.241Z,8.70
2022-11-30T16:36:13.302Z,9.43
2022-11-30T16:39:17.847Z,7.13
2022-11-30T16:42:22.665Z,9.25
2022-11-30T16:45:36.612Z,7.78
2022-11-30T16:48:41.774Z,8.50
2022-11-30T16:51:46.722Z,7.45
2022-11-30T16:54:51.447Z,6.72
2022-11-30T16:57:56.427Z,8.20
2022-11-30T17:01:01.356Z,7.95
2022-11-30T17:04:23.021Z,7.93
2022-11-30T17:07:28.023Z,8.13
2022-11-30T17:10:32.664Z,9.50
2022-11-30T17:13:37.211Z,9.35
2022-11-30T17:16:42.735Z,7.68
2022-11-30T17:19:47.495Z,9.90
2022-11-30T17:22:53.358Z,9.82
2022-11-30T17:25:58.224Z,9.45
2022-11-30T17:29:03.326Z,10.68
2022-11-30T17:32:08.029Z,10.82
2022-11-30T17:35:13.450Z,10.20
2022-11-30T17:38:18.156Z,9.43
2022-11-30T17:41:23.081Z,10.00
2022-11-30T17:44:27.919Z,10.07
2022-11-30T17:47:32.773Z,10.45
2022-11-30T17:50:39.544Z,11.02
2022-11-30T17:53:44.753Z,9.10
2022-11-30T17:56:49.786Z,10.57
2022-11-30T17:59:54.696Z,11.55
2022-11-30T18:03:01.442Z,9.43
2022-11-30T18:06:06.547Z,10.48
2022-11-30T18:09:12.300Z,10.55
2022-11-30T18:12:16.992Z,10.40
2022-11-30T18:15:21.686Z,9.77
2022-11-30T18:18:26.511Z,10.05
2022-11-30T18:21:31.462Z,14.00
2022-11-30T18:24:36.365Z,11.32
2022-11-30T18:27:41.552Z,11.75
2022-11-30T18:30:46.016Z,13.98
2022-11-30T18:34:03.552Z,11.52
2022-11-30T18:37:09.672Z,13.43
2022-11-30T18:40:15.797Z,13.55
2022-11-30T18:43:20.961Z,12.85
2022-11-30T18:46:26.966Z,10.73
2022-11-30T18:49:32.998Z,13.70
2022-11-30T18:53:01.989Z,14.45
2022-11-30T18:56:15.383Z,13.77
2022-11-30T18:59:20.297Z,12.27
2022-11-30T19:02:49.083Z,13.27
2022-11-30T19:05:54.018Z,13.68
2022-11-30T19:09:01.609Z,14.00
2022-11-30T19:12:06.221Z,15.10
2022-11-30T19:15:11.736Z,16.55
2022-11-30T19:18:20.454Z,12.25
2022-11-30T19:21:28.291Z,13.38
2022-11-30T19:24:34.455Z,14.70
2022-11-30T19:27:39.164Z,13.27
2022-11-30T19:30:44.426Z,13.63
2022-11-30T19:33:53.040Z,13.55
2022-11-30T19:36:57.912Z,16.88
2022-11-30T19:40:02.732Z,15.18
2022-11-30T19:43:07.546Z,15.00
2022-11-30T19:46:17.526Z,17.95
2022-11-30T19:49:23.265Z,20.20
2022-11-30T19:52:28.054Z,23.48
2022-11-30T19:55:33.255Z,21.20
2022-11-30T19:58:37.921Z,24.63
2022-11-30T20:01:42.891Z,18.85
2022-11-30T20:04:48.067Z,19.60
2022-11-30T20:07:53.097Z,16.50
2022-11-30T20:10:57.765Z,19.02
2022-11-30T20:14:03.011Z,19.45
2022-11-30T20:17:08.841Z,17.65
2022-11-30T20:20:13.817Z,17.88
2022-11-30T20:23:18.495Z,19.33
2022-11-30T20:26:30.245Z,17.33
2022-11-30T20:29:34.941Z,17.45
2022-11-30T20:32:42.400Z,17.85
2022-11-30T20:35:47.027Z,18.17
2022-11-30T20:38:51.347Z,21.30
2022-11-30T20:41:55.887Z,19.40
2022-11-30T20:45:00.587Z,20.67
2022-11-30T20:48:05.897Z,21.92
2022-11-30T20:51:30.789Z,24.00
2022-11-30T20:54:36.099Z,20.33
2022-11-30T20:57:40.760Z,23.73
2022-11-30T21:00:45.123Z,27.20
2022-11-30T21:03:49.788Z,23.30
2022-11-30T21:06:54.860Z,23.13
2022-11-30T21:10:00.717Z,24.63
2022-11-30T21:13:05.872Z,27.27
2022-11-30T21:16:12.797Z,28.27
2022-11-30T21:19:17.766Z,40.28
2022-11-30T21:22:22.870Z,31.63
2022-11-30T21:25:27.793Z,27.17
2022-11-30T21:28:37.808Z,22.13
2022-11-30T21:31:44.850Z,19.13
2022-11-30T21:34:49.505Z,19.08
2022-11-30T21:37:54.591Z,20.23
2022-11-30T21:41:01.106Z,19.27
2022-11-30T21:44:10.846Z,17.42
2022-11-30T21:47:15.714Z,18.10
2022-11-30T21:50:24.425Z,16.08
2022-11-30T21:53:35.425Z,16.85
2022-11-30T21:56:42.632Z,19.15
2022-11-30T21:59:47.389Z,21.60
2022-11-30T22:02:52.239Z,19.42
2022-11-30T22:06:10.739Z,17.52
2022-11-30T22:09:17.232Z,20.42
2022-11-30T22:12:21.583Z,14.50
2022-11-30T22:15:26.151Z,33.20
2022-11-30T22:18:31.185Z,28.45
2022-11-30T22:21:36.074Z,21.50
2022-11-30T22:24:40.706Z,31.50
2022-11-30T22:27:44.967Z,24.40
2022-11-30T22:30:49.522Z,27.83
2022-11-30T22:33:54.369Z,18.90
2022-11-30T22:36:59.233Z,21.35
2022-11-30T22:40:04.472Z,21.70
2022-11-30T22:43:09.147Z,31.45
2022-11-30T22:46:18.768Z,24.92
2022-11-30T22:49:24.114Z,25.80
2022-11-30T22:52:54.937Z,22.15
2022-11-30T22:58:59.942Z,18.67
2022-11-30T23:02:04.333Z,21.02
2022-11-30T23:05:09.072Z,24.30
2022-11-30T23:08:13.981Z,25.88
2022-11-30T23:11:24.054Z,19.95
2022-11-30T23:14:28.977Z,20.35
2022-11-30T23:17:34.376Z,25.20
2022-11-30T23:20:39.006Z,25.77
2022-11-30T23:23:44.320Z,18.58
2022-11-30T23:26:49.663Z,22.70
2022-11-30T23:29:54.198Z,17.48
2022-11-30T23:32:58.754Z,22.10
2022-11-30T23:36:04.279Z,17.58
2022-11-30T23:39:13.145Z,18.58
2022-11-30T23:42:17.606Z,21.10
2022-11-30T23:45:22.190Z,17.58
2022-11-30T23:48:27.399Z,19.38
2022-11-30T23:51:32.046Z,13.30
2022-11-30T23:54:36.733Z,12.27
2022-11-30T23:57:41.369Z,18.52
